Time;durP1;ratioP1;P1;durP2;ratioP2;P2;SDS_P1;SDS_P2;PMS_P1;PMS_P2;Temp;Humidity;BMP_temperature;BMP_pressure;BME280_temperature;BME280_humidity;BME280_pressure;Samples;Min_cycle;Max_cycle;Signal;HPM_P1;HPM_P2
2022/09/25 00:00:54;;;;;;;7.00;2.30;;;;;;;10.65;94.36;101501.47;5030644;28;20033;-78
2022/09/25 00:03:21;;;;;;;9.10;2.55;;;;;;;10.63;94.77;101511.97;5036854;28;20488;-77
2022/09/25 00:05:47;;;;;;;7.80;2.53;;;;;;;10.69;94.35;101512.47;5047323;28;20025;-77
2022/09/25 00:08:14;;;;;;;8.30;2.63;;;;;;;10.59;94.35;101497.56;5046568;28;20032;-78
2022/09/25 00:10:50;;;;;;;6.22;2.13;;;;;;;10.73;94.81;101508.75;5044680;28;20033;-78
2022/09/25 00:13:18;;;;;;;9.27;3.00;;;;;;;10.62;94.24;101510.31;5025386;28;20619;-78
2022/09/25 00:15:48;;;;;;;8.32;3.00;;;;;;;10.61;94.34;101513.03;5032247;28;20029;-78
2022/09/25 00:18:15;;;;;;;8.20;2.50;;;;;;;10.58;93.99;101508.03;5033060;28;20026;-78
2022/09/25 00:20:41;;;;;;;10.35;3.25;;;;;;;10.50;94.58;101511.19;5045924;28;20483;-77
2022/09/25 00:23:07;;;;;;;10.32;3.03;;;;;;;10.43;94.65;101504.75;5030427;28;20025;-78
2022/09/25 00:25:32;;;;;;;10.77;3.05;;;;;;;10.45;94.18;101508.09;5049598;28;20109;-78
2022/09/25 00:27:58;;;;;;;12.85;3.08;;;;;;;10.47;94.41;101516.56;5047932;28;20115;-78
2022/09/25 00:30:23;;;;;;;8.63;2.92;;;;;;;10.44;94.53;101518.56;5045676;28;20040;-76
2022/09/25 00:32:49;;;;;;;10.95;3.20;;;;;;;10.35;94.54;101513.06;5047847;28;20047;-78
2022/09/25 00:35:14;;;;;;;11.15;3.28;;;;;;;10.43;94.79;101515.13;5032472;28;20473;-77
2022/09/25 00:37:40;;;;;;;7.45;2.47;;;;;;;10.49;94.86;101519.88;5033221;28;20033;-78
2022/09/25 00:40:06;;;;;;;10.38;3.47;;;;;;;10.33;94.28;101514.13;5043542;28;20840;-78
2022/09/25 00:42:32;;;;;;;8.90;2.97;;;;;;;10.42;94.50;101518.66;5044065;28;20477;-78
2022/09/25 00:45:03;;;;;;;9.13;3.00;;;;;;;10.39;94.13;101524.06;5046161;28;20124;-78
2022/09/25 00:47:52;;;;;;;8.70;2.40;;;;;;;10.30;94.67;101509.16;5049146;28;20514;-78
2022/09/25 00:50:23;;;;;;;;;;;;;;;10.49;94.27;101525.06;5031958;28;20445;-78
2022/09/25 00:52:53;;;;;;;10.80;2.50;;;;;;;10.40;94.11;101533.50;5042038;28;20406;-78
2022/09/25 00:55:22;;;;;;;10.90;3.50;;;;;;;10.25;94.33;101522.41;5049390;28;20028;-79
2022/09/25 00:57:51;;;;;;;11.30;3.40;;;;;;;10.26;94.46;101520.66;5048970;28;20041;-78
2022/09/25 01:00:16;;;;;;;;;;;;;;;10.43;94.16;101530.69;5049574;28;20029;-78
2022/09/25 01:02:45;;;;;;;8.45;3.88;;;;;;;10.22;93.92;101524.38;5039504;28;20504;-78
2022/09/25 01:05:25;;;;;;;7.97;3.15;;;;;;;10.18;94.80;101521.16;5042723;28;20123;-77
2022/09/25 01:08:40;;;;;;;6.75;2.65;;;;;;;10.31;93.90;101526.34;5039258;28;20060;-81
2022/09/25 01:11:06;;;;;;;7.82;3.55;;;;;;;10.14;94.17;101517.13;5020003;28;20461;-79
2022/09/25 01:13:31;;;;;;;9.75;3.53;;;;;;;10.13;94.92;101518.06;5048345;28;20065;-79
2022/09/25 01:16:26;;;;;;;9.77;3.50;;;;;;;10.08;95.14;101531.31;5049455;28;20036;-79
2022/09/25 01:18:58;;;;;;;13.02;3.13;;;;;;;10.07;94.98;101524.47;5033680;28;20062;-78
2022/09/25 01:21:48;;;;;;;8.15;2.55;;;;;;;10.16;94.82;101532.59;5045011;28;20556;-78
2022/09/25 01:24:40;;;;;;;7.25;2.83;;;;;;;10.08;94.92;101520.94;5040410;28;20086;-78
2022/09/25 01:27:06;;;;;;;9.30;3.33;;;;;;;9.95;94.66;101534.88;5037010;28;20033;-78
2022/09/25 01:29:31;;;;;;;6.90;2.72;;;;;;;9.96;95.10;101532.16;5045131;28;20423;-78
2022/09/25 01:32:19;;;;;;;8.30;3.13;;;;;;;9.96;95.14;101531.34;5043848;28;20025;-78
2022/09/25 01:34:45;;;;;;;;;;;;;;;10.06;94.71;101533.19;5034025;28;20500;-78
2022/09/25 01:37:21;;;;;;;9.33;2.77;;;;;;;9.97;94.89;101528.63;5049064;28;20262;-78
2022/09/25 01:40:12;;;;;;;8.55;2.90;;;;;;;9.98;94.42;101529.47;5048841;28;20291;-78
2022/09/25 01:43:06;;;;;;;9.10;2.47;;;;;;;9.97;95.14;101523.44;5039938;28;20064;-78
2022/09/25 01:45:41;;;;;;;9.63;3.47;;;;;;;9.80;94.99;101526.34;5029220;28;20260;-78
2022/09/25 01:48:09;;;;;;;7.95;2.80;;;;;;;9.90;94.95;101522.22;5042622;28;20032;-78
2022/09/25 01:50:44;;;;;;;10.90;3.08;;;;;;;9.84;94.97;101533.00;5048246;28;20076;-77
2022/09/25 01:53:14;;;;;;;8.38;2.80;;;;;;;9.85;94.60;101527.69;5029766;28;20028;-78
2022/09/25 01:55:46;;;;;;;8.20;3.10;;;;;;;9.77;95.42;101529.16;5036673;28;20041;-78
2022/09/25 01:58:27;;;;;;;8.73;3.28;;;;;;;9.74;95.31;101521.56;5047156;28;20465;-78
2022/09/25 02:00:58;;;;;;;7.85;2.88;;;;;;;9.85;95.25;101529.47;5044780;28;20021;-78
2022/09/25 02:03:29;;;;;;;9.18;3.20;;;;;;;9.65;95.42;101524.81;5048180;28;20723;-79
2022/09/25 02:06:00;;;;;;;6.72;2.83;;;;;;;9.72;95.43;101518.28;5019114;28;20025;-78
2022/09/25 02:08:42;;;;;;;10.30;3.05;;;;;;;9.76;96.05;101524.91;5042152;28;20051;-78
2022/09/25 02:11:09;;;;;;;8.88;2.70;;;;;;;9.76;95.64;101535.28;5041178;28;20032;-78
2022/09/25 02:13:46;;;;;;;7.00;2.88;;;;;;;9.74;95.31;101530.19;5044631;28;20037;-77
2022/09/25 02:16:21;;;;;;;7.90;3.35;;;;;;;9.68;95.34;101527.16;5029086;28;20103;-77
2022/09/25 02:21:54;;;;;;;8.52;2.88;;;;;;;9.69;95.65;101528.81;5045301;28;20155;-78
2022/09/25 02:24:36;;;;;;;6.68;2.63;;;;;;;9.70;95.29;101530.50;5040733;28;20465;-78
2022/09/25 02:27:01;;;;;;;10.88;3.15;;;;;;;9.65;95.51;101535.16;5036280;28;20033;-78
2022/09/25 02:29:28;;;;;;;10.68;3.80;;;;;;;9.54;96.01;101526.34;5041801;28;20082;-78
2022/09/25 02:31:58;;;;;;;7.15;2.95;;;;;;;9.56;96.11;101514.09;5044810;28;20087;-78
2022/09/25 02:34:24;;;;;;;7.07;3.22;;;;;;;9.64;96.37;101528.31;5046739;28;20119;-77
2022/09/25 02:36:50;;;;;;;8.50;3.80;;;;;;;9.45;96.43;101520.91;5029954;28;20111;-78
2022/09/25 02:39:19;;;;;;;9.38;2.97;;;;;;;9.56;96.42;101529.63;5047244;28;20067;-77
2022/09/25 02:41:53;;;;;;;7.05;3.10;;;;;;;9.51;96.32;101531.69;5033334;28;20497;-78
2022/09/25 02:44:18;;;;;;;6.90;3.75;;;;;;;9.45;96.42;101526.09;5029627;28;20044;-78
2022/09/25 02:47:07;;;;;;;7.13;3.17;;;;;;;9.54;96.43;101521.16;5038839;28;20049;-79
2022/09/25 02:49:52;;;;;;;6.80;3.03;;;;;;;9.53;96.35;101519.50;5042387;28;20060;-78
2022/09/25 02:52:26;;;;;;;7.03;3.40;;;;;;;9.32;96.10;101520.91;5028859;28;20104;-78
2022/09/25 02:55:01;;;;;;;9.45;3.20;;;;;;;9.37;95.96;101518.84;5027480;28;20032;-79
2022/09/25 02:57:40;;;;;;;8.70;2.90;;;;;;;9.40;96.25;101523.81;5028558;28;20051;-78
2022/09/25 03:00:07;;;;;;;7.47;3.55;;;;;;;9.29;96.08;101526.28;5044390;28;20377;-77
2022/09/25 03:02:34;;;;;;;9.70;3.80;;;;;;;9.13;96.41;101520.44;5028253;28;20025;-78
2022/09/25 03:05:02;;;;;;;6.28;2.67;;;;;;;9.25;96.55;101515.28;5028913;28;20638;-78
2022/09/25 03:07:28;;;;;;;7.65;2.70;;;;;;;9.32;96.44;101516.53;5047353;28;20043;-78
2022/09/25 03:09:57;;;;;;;8.25;4.00;;;;;;;9.15;97.10;101523.75;5037580;28;20470;-78
2022/09/25 03:12:22;;;;;;;6.32;3.30;;;;;;;9.23;97.03;101521.47;5021552;28;20016;-78
2022/09/25 03:14:47;;;;;;;9.05;3.70;;;;;;;9.15;97.44;101521.16;5041550;28;20108;-78
2022/09/25 03:17:16;;;;;;;5.90;2.90;;;;;;;9.21;97.50;101518.19;5041555;28;20518;-78
2022/09/25 03:19:41;;;;;;;4.53;2.38;;;;;;;9.22;97.40;101499.13;5037459;28;20017;-77
2022/09/25 03:22:07;;;;;;;7.32;3.05;;;;;;;9.24;97.42;101518.00;5021046;28;20035;-78
2022/09/25 03:24:33;;;;;;;7.78;2.85;;;;;;;9.23;97.70;101511.13;5041770;28;20032;-78
2022/09/25 03:26:58;;;;;;;8.90;3.88;;;;;;;9.18;97.58;101516.63;5045667;28;20036;-78
2022/09/25 03:29:23;;;;;;;7.10;2.88;;;;;;;9.22;97.56;101512.06;5039414;28;20103;-78
2022/09/25 03:31:49;;;;;;;7.10;2.80;;;;;;;9.16;97.11;101502.94;5039433;28;20386;-78
2022/09/25 03:34:16;;;;;;;7.28;3.42;;;;;;;9.14;97.44;101512.56;5035438;28;20378;-77
2022/09/25 03:36:46;;;;;;;7.50;3.57;;;;;;;9.12;97.82;101519.63;5045782;28;20088;-78
2022/09/25 03:39:13;;;;;;;7.15;3.28;;;;;;;9.09;97.48;101509.44;5046309;28;20029;-77
2022/09/25 03:41:39;;;;;;;7.35;2.65;;;;;;;9.10;96.89;101511.09;5048899;28;20024;-78
2022/09/25 03:44:05;;;;;;;6.63;3.80;;;;;;;8.99;96.75;101513.53;5049596;28;20457;-77
2022/09/25 03:46:34;;;;;;;8.45;4.10;;;;;;;8.90;97.59;101507.22;5050680;28;20072;-78
2022/09/25 03:49:01;;;;;;;7.75;3.58;;;;;;;9.05;97.61;101513.16;5049182;28;20391;-78
2022/09/25 03:51:28;;;;;;;5.32;2.75;;;;;;;9.03;97.46;101515.84;5046645;28;20027;-78
2022/09/25 03:53:54;;;;;;;6.60;3.08;;;;;;;9.00;96.82;101510.88;5049118;28;20047;-78
2022/09/25 03:56:23;;;;;;;6.00;3.95;;;;;;;8.80;97.27;101513.88;5049865;28;20423;-78
2022/09/25 03:58:50;;;;;;;7.72;2.97;;;;;;;8.93;97.30;101509.59;5031120;28;20365;-78
2022/09/25 04:01:18;;;;;;;5.88;3.05;;;;;;;8.92;97.14;101522.63;5047127;28;20029;-78
2022/09/25 04:03:46;;;;;;;6.00;3.53;;;;;;;8.87;97.12;101509.97;5031699;28;20032;-78
2022/09/25 04:06:13;;;;;;;5.73;3.07;;;;;;;8.92;97.71;101518.28;5047988;28;20052;-78
2022/09/25 04:08:38;;;;;;;7.90;4.28;;;;;;;8.81;97.43;101515.53;5043864;28;20021;-78
2022/09/25 04:11:04;;;;;;;7.80;3.25;;;;;;;8.88;97.29;101514.22;5049747;28;20044;-78
2022/09/25 04:13:35;;;;;;;8.02;4.68;;;;;;;8.71;98.12;101499.75;5050116;28;20457;-78
2022/09/25 04:16:02;;;;;;;5.65;3.28;;;;;;;8.91;98.31;101508.88;5050377;28;20055;-78
2022/09/25 04:18:30;;;;;;;5.55;2.97;;;;;;;8.89;97.36;101500.38;5033466;28;20028;-78
2022/09/25 04:21:14;;;;;;;7.38;3.20;;;;;;;8.86;97.51;101508.31;5049580;28;20052;-78
2022/09/25 04:23:40;;;;;;;7.78;3.30;;;;;;;8.75;97.50;101495.25;5043502;28;20159;-78
2022/09/25 04:26:06;;;;;;;6.70;3.15;;;;;;;8.75;97.34;101501.25;5049237;28;20056;-78
2022/09/25 04:28:32;;;;;;;6.35;3.03;;;;;;;8.72;97.25;101516.13;5047232;28;20037;-77
2022/09/25 04:30:58;;;;;;;5.45;2.80;;;;;;;8.69;97.85;101504.22;5031371;28;20432;-78
2022/09/25 04:36:08;;;;;;;7.43;3.85;;;;;;;8.63;97.94;101521.88;5038304;28;20526;-78
2022/09/25 04:38:33;;;;;;;5.80;2.88;;;;;;;8.71;97.39;101510.09;5047425;28;20857;-78
2022/09/25 04:41:00;;;;;;;6.22;4.20;;;;;;;8.61;97.60;101513.41;5042458;28;20032;-78
2022/09/25 04:43:29;;;;;;;4.78;2.72;;;;;;;8.64;97.69;101498.50;5043733;28;20472;-78
2022/09/25 04:46:03;;;;;;;7.28;2.88;;;;;;;8.72;97.86;101510.97;5042197;28;20049;-78
2022/09/25 04:48:29;;;;;;;7.07;3.03;;;;;;;8.71;97.32;101514.47;5044627;28;20021;-79
2022/09/25 04:50:55;;;;;;;4.63;3.05;;;;;;;8.66;97.64;101511.31;5043318;28;20025;-78
2022/09/25 04:53:21;;;;;;;5.43;2.80;;;;;;;8.66;97.82;101511.31;5047809;28;20338;-77
2022/09/25 04:55:47;;;;;;;5.38;3.30;;;;;;;8.59;97.50;101500.53;5029018;28;20523;-78
2022/09/25 04:58:12;;;;;;;6.93;3.55;;;;;;;8.62;98.14;101499.53;5043426;28;20020;-78
2022/09/25 05:00:39;;;;;;;7.78;3.33;;;;;;;8.60;97.57;101499.63;5031983;28;20025;-78
2022/09/25 05:03:05;;;;;;;6.50;3.38;;;;;;;8.61;98.23;101503.06;5031541;28;20021;-78
2022/09/25 05:05:31;;;;;;;7.55;3.97;;;;;;;8.64;98.24;101502.84;5046295;28;20025;-79
2022/09/25 05:07:59;;;;;;;7.40;3.60;;;;;;;8.64;98.57;101508.00;5048935;28;20487;-78
2022/09/25 05:10:38;;;;;;;8.35;5.20;;;;;;;8.63;99.07;101496.00;5044603;28;20048;-78
2022/09/25 05:13:04;;;;;;;7.47;3.88;;;;;;;8.64;99.19;101502.84;5046265;28;20119;-78
2022/09/25 05:15:31;;;;;;;9.30;5.72;;;;;;;8.54;99.27;101496.56;5038145;28;20124;-78
2022/09/25 05:18:16;;;;;;;7.77;3.93;;;;;;;8.66;99.05;101490.63;5047258;28;20029;-78
2022/09/25 05:20:42;;;;;;;7.40;3.88;;;;;;;8.65;99.06;101507.09;5041759;28;20754;-78
2022/09/25 05:23:08;;;;;;;6.20;3.30;;;;;;;8.58;98.51;101482.53;5048631;28;20040;-77
2022/09/25 05:25:33;;;;;;;7.53;3.53;;;;;;;8.61;98.42;101482.38;5040242;28;20033;-78
2022/09/25 05:28:00;;;;;;;7.30;3.58;;;;;;;8.62;98.58;101495.19;5043440;28;20016;-78
2022/09/25 05:30:28;;;;;;;7.07;3.20;;;;;;;8.62;98.23;101494.38;5021466;28;20372;-79
2022/09/25 05:32:53;;;;;;;9.45;4.80;;;;;;;8.54;98.75;101496.56;5047200;28;20021;-78
2022/09/25 05:35:21;;;;;;;6.18;3.78;;;;;;;8.58;98.85;101498.06;5036787;28;20362;-78
2022/09/25 05:37:47;;;;;;;7.25;3.97;;;;;;;8.56;98.99;101489.56;5044347;28;20035;-77
2022/09/25 05:40:16;;;;;;;8.40;4.40;;;;;;;8.56;98.90;101484.41;5047684;28;20372;-78
2022/09/25 05:42:43;;;;;;;11.55;4.13;;;;;;;8.63;99.29;101501.19;5048425;28;20033;-78
2022/09/25 05:45:10;;;;;;;8.27;3.90;;;;;;;8.63;99.68;101502.00;5048858;28;20143;-78
2022/09/25 05:47:36;;;;;;;6.38;3.55;;;;;;;8.63;99.50;101501.19;5046680;28;20029;-78
2022/09/25 05:50:03;;;;;;;7.35;4.22;;;;;;;8.64;99.71;101508.84;5046999;28;20055;-78
2022/09/25 05:52:29;;;;;;;8.52;3.97;;;;;;;8.60;100.00;101496.19;5029866;28;20025;-78
2022/09/25 05:54:55;;;;;;;6.35;3.92;;;;;;;8.60;100.00;101485.84;5048678;28;20029;-79
2022/09/25 05:57:21;;;;;;;6.85;3.90;;;;;;;8.63;99.87;101498.59;5028392;28;20465;-78
2022/09/25 05:59:48;;;;;;;8.43;3.75;;;;;;;8.66;99.80;101498.41;5032261;28;20033;-78
2022/09/25 06:02:14;;;;;;;5.68;3.67;;;;;;;8.68;99.95;101504.31;5047017;28;20033;-78
2022/09/25 06:04:40;;;;;;;5.88;3.67;;;;;;;8.67;99.95;101492.31;5042864;28;20440;-78
2022/09/25 06:07:05;;;;;;;5.75;3.45;;;;;;;8.69;99.58;101504.22;5046871;28;20025;-77
2022/09/25 06:09:30;;;;;;;8.85;4.50;;;;;;;8.65;99.59;101504.50;5045247;28;20025;-78
2022/09/25 06:11:56;;;;;;;9.90;4.43;;;;;;;8.64;99.98;101497.66;5035967;28;20477;-78
2022/09/25 06:14:21;;;;;;;6.93;4.18;;;;;;;8.71;99.83;101502.34;5035954;28;20056;-78
2022/09/25 06:16:49;;;;;;;9.40;5.28;;;;;;;8.62;99.76;101499.53;5040958;28;20457;-78
2022/09/25 06:19:14;;;;;;;6.72;3.45;;;;;;;8.72;100.00;101500.63;5042204;28;20029;-78
2022/09/25 06:21:40;;;;;;;8.70;4.35;;;;;;;8.73;99.75;101508.28;5039095;28;20401;-78
2022/09/25 06:24:05;;;;;;;7.18;4.03;;;;;;;8.77;100.00;101520.09;5039833;28;20116;-79
2022/09/25 06:26:32;;;;;;;6.68;3.75;;;;;;;8.81;100.00;101518.13;5045875;28;20519;-80
2022/09/25 06:28:59;;;;;;;8.35;3.85;;;;;;;8.80;100.00;101500.97;5032447;28;20047;-80
2022/09/25 06:31:25;;;;;;;7.38;4.32;;;;;;;8.81;100.00;101510.38;5027544;28;20044;-78
2022/09/25 06:33:50;;;;;;;7.60;3.70;;;;;;;8.88;100.00;101519.41;5047154;28;20024;-78
2022/09/25 06:36:16;;;;;;;8.63;5.55;;;;;;;8.87;100.00;101520.31;5040124;28;20024;-79
2022/09/25 06:38:41;;;;;;;6.43;4.18;;;;;;;8.93;100.00;101519.94;5037400;28;20519;-77
2022/09/25 06:41:06;;;;;;;8.43;4.60;;;;;;;8.87;100.00;101502.22;5040273;28;20036;-78
2022/09/25 06:43:32;;;;;;;8.38;4.18;;;;;;;8.97;100.00;101511.06;5043599;28;20478;-79
2022/09/25 06:46:02;;;;;;;9.30;3.67;;;;;;;8.98;100.00;101510.13;5034687;28;20095;-77
2022/09/25 06:48:29;;;;;;;7.43;3.78;;;;;;;9.00;100.00;101510.88;5043143;28;20112;-78
2022/09/25 06:50:56;;;;;;;7.32;3.83;;;;;;;9.00;100.00;101504.84;5046272;28;20107;-78
2022/09/25 06:53:23;;;;;;;8.23;3.90;;;;;;;9.09;100.00;101513.78;5043750;28;20055;-79
2022/09/25 06:55:49;;;;;;;8.00;4.95;;;;;;;9.01;100.00;101499.59;5036331;28;20047;-80
2022/09/25 06:58:18;;;;;;;8.50;4.25;;;;;;;9.13;100.00;101508.31;5034576;28;20037;-79
2022/09/25 07:00:47;;;;;;;8.52;3.88;;;;;;;9.20;100.00;101519.09;5037204;28;20051;-79
2022/09/25 07:05:59;;;;;;;7.15;3.88;;;;;;;9.29;100.00;101516.75;5040037;28;20045;-80
2022/09/25 07:08:24;;;;;;;9.40;5.25;;;;;;;9.32;100.00;101507.94;5029360;28;20037;-78
2022/09/25 07:10:51;;;;;;;5.75;3.28;;;;;;;9.38;100.00;101519.66;5031911;28;20358;-79
2022/09/25 07:13:18;;;;;;;9.27;5.30;;;;;;;9.47;100.00;101519.91;5028771;28;20611;-78
2022/09/25 07:15:53;;;;;;;7.88;3.25;;;;;;;9.50;100.00;101517.09;5043718;28;20028;-79
2022/09/25 07:18:20;;;;;;;6.95;3.72;;;;;;;9.53;100.00;101521.25;5044686;28;20025;-79
2022/09/25 07:20:45;;;;;;;8.88;4.90;;;;;;;9.60;100.00;101529.44;5027796;28;20079;-79
2022/09/25 07:23:12;;;;;;;7.55;3.22;;;;;;;9.66;100.00;101529.03;5045707;28;20480;-80
2022/09/25 07:25:38;;;;;;;8.00;4.60;;;;;;;9.64;100.00;101538.69;5039677;28;20033;-79
2022/09/25 07:28:04;;;;;;;7.30;3.17;;;;;;;9.74;100.00;101534.53;5036404;28;20033;-79
2022/09/25 07:30:29;;;;;;;5.95;2.97;;;;;;;9.76;100.00;101530.09;5029985;28;20044;-80
2022/09/25 07:32:55;;;;;;;7.55;4.60;;;;;;;9.83;100.00;101532.16;5040940;28;20028;-79
2022/09/25 07:35:20;;;;;;;7.80;3.42;;;;;;;9.87;100.00;101530.22;5039761;28;20784;-79
2022/09/25 07:37:45;;;;;;;7.72;3.88;;;;;;;9.97;100.00;101538.16;5033646;28;20064;-79
2022/09/25 07:40:13;;;;;;;7.97;4.38;;;;;;;9.96;100.00;101516.59;5040996;28;20454;-80
2022/09/25 07:42:40;;;;;;;7.80;4.33;;;;;;;10.08;100.00;101536.50;5024667;28;20080;-79
2022/09/25 07:45:06;;;;;;;5.32;3.15;;;;;;;10.17;100.00;101529.06;5037775;28;20073;-79
2022/09/25 07:47:32;;;;;;;4.63;2.63;;;;;;;10.21;100.00;101525.31;5030336;28;20434;-80
2022/09/25 07:49:58;;;;;;;9.45;4.43;;;;;;;10.29;100.00;101525.66;5038064;28;20040;-80
2022/09/25 07:52:23;;;;;;;8.13;3.60;;;;;;;10.41;100.00;101531.75;5036995;28;20434;-79
2022/09/25 07:54:49;;;;;;;8.15;4.00;;;;;;;10.45;100.00;101523.66;5044603;28;20044;-78
2022/09/25 07:57:15;;;;;;;8.10;3.00;;;;;;;10.57;100.00;101527.16;5044997;28;20060;-78
2022/09/25 07:59:40;;;;;;;7.43;3.78;;;;;;;10.68;100.00;101539.38;5039155;28;20032;-79
2022/09/25 08:02:06;;;;;;;6.93;3.72;;;;;;;10.71;100.00;101523.56;5035528;28;20029;-79
2022/09/25 08:04:31;;;;;;;9.57;3.83;;;;;;;10.83;100.00;101522.69;5040757;28;20508;-79
2022/09/25 08:07:00;;;;;;;7.97;3.38;;;;;;;10.94;100.00;101525.34;5045854;28;20028;-78
2022/09/25 08:09:25;;;;;;;;;;;;;;;11.03;100.00;101529.06;5043862;28;20080;-78
2022/09/25 08:11:51;;;;;;;8.43;3.45;;;;;;;11.09;100.00;101524.25;5045805;28;20413;-79
2022/09/25 08:14:17;;;;;;;8.52;3.88;;;;;;;11.16;100.00;101524.63;5032504;28;20029;-79
2022/09/25 08:16:43;;;;;;;7.78;3.15;;;;;;;11.28;100.00;101533.28;5037855;28;20029;-78
2022/09/25 08:19:10;;;;;;;5.43;2.75;;;;;;;11.33;99.78;101531.19;5042733;28;20384;-80
2022/09/25 08:21:35;;;;;;;8.65;3.00;;;;;;;11.40;99.81;101516.78;5037065;28;20037;-78
2022/09/25 08:24:01;;;;;;;7.25;2.42;;;;;;;11.49;99.49;101534.31;5027931;28;20056;-78
2022/09/25 08:26:30;;;;;;;6.43;2.83;;;;;;;11.60;99.37;101529.16;5028093;28;20452;-79
2022/09/25 08:28:56;;;;;;;6.68;2.70;;;;;;;11.65;99.25;101516.66;5050156;28;20474;-79
2022/09/25 08:31:21;;;;;;;11.10;2.75;;;;;;;11.65;98.57;101510.63;5047137;28;20051;-78
2022/09/25 08:33:49;;;;;;;7.65;2.63;;;;;;;11.89;98.70;101519.19;5043166;28;20036;-79
2022/09/25 08:36:15;;;;;;;7.93;2.42;;;;;;;11.89;97.59;101523.56;5040143;28;20033;-79
2022/09/25 08:38:41;;;;;;;7.50;2.35;;;;;;;11.95;95.64;101523.09;5048993;28;20017;-79
2022/09/25 08:41:15;;;;;;;6.30;2.60;;;;;;;12.04;95.28;101524.16;5040320;28;20029;-79
2022/09/25 08:44:11;;;;;;;6.90;2.20;;;;;;;12.10;94.26;101521.06;5036644;28;20029;-78
2022/09/25 08:49:49;;;;;;;6.55;2.00;;;;;;;12.30;95.14;101519.56;5045230;28;20488;-79
2022/09/25 08:52:20;;;;;;;6.78;2.00;;;;;;;12.31;94.12;101508.19;5037526;28;20116;-78
2022/09/25 08:54:46;;;;;;;9.23;2.08;;;;;;;12.36;91.87;101521.66;5030668;28;20025;-79
2022/09/25 08:57:33;;;;;;;8.35;2.00;;;;;;;12.44;91.91;101524.50;5031942;28;20032;-78
2022/09/25 09:00:21;;;;;;;7.60;2.27;;;;;;;12.51;92.14;101524.84;5040146;28;20028;-79
2022/09/25 09:02:55;;;;;;;6.90;1.90;;;;;;;12.63;91.03;101524.72;5048200;28;20059;-79
2022/09/25 09:05:27;;;;;;;5.95;1.70;;;;;;;12.71;90.58;101522.31;5041701;28;20461;-77
2022/09/25 09:07:56;;;;;;;5.80;1.75;;;;;;;12.77;89.73;101531.41;5045926;28;20473;-77
2022/09/25 09:10:43;;;;;;;4.80;2.00;;;;;;;12.84;92.20;101523.94;5041430;28;20033;-79
2022/09/25 09:13:11;;;;;;;8.63;1.90;;;;;;;12.97;87.97;101533.28;5038471;28;20108;-78
2022/09/25 09:15:45;;;;;;;6.93;1.73;;;;;;;12.96;85.01;101535.97;5048491;28;20044;-79
2022/09/25 09:18:35;;;;;;;6.97;1.67;;;;;;;13.06;86.21;101529.09;5041011;28;20047;-79
2022/09/25 09:21:09;;;;;;;5.70;1.30;;;;;;;13.02;84.30;101535.50;5040651;28;20557;-78
2022/09/25 09:23:50;;;;;;;5.93;1.50;;;;;;;13.18;85.72;101517.66;5038581;28;20029;-78
2022/09/25 09:26:31;;;;;;;6.05;1.17;;;;;;;13.32;84.43;101536.59;5038639;28;20032;-79
2022/09/25 09:29:00;;;;;;;7.55;1.30;;;;;;;13.24;82.81;101525.00;5040064;28;20037;-78
2022/09/25 09:31:45;;;;;;;5.75;1.50;;;;;;;13.20;82.02;101523.59;5045076;28;20473;-79
2022/09/25 09:34:42;;;;;;;5.20;1.15;;;;;;;13.18;82.12;101520.28;5036566;28;20535;-78
2022/09/25 09:37:53;;;;;;;5.43;1.40;;;;;;;13.21;83.51;101522.66;5041534;28;20091;-78
2022/09/25 09:40:25;;;;;;;8.07;1.40;;;;;;;13.29;79.87;101517.66;5037922;28;20021;-79
2022/09/25 09:43:02;;;;;;;4.32;1.20;;;;;;;13.25;80.64;101513.66;5048627;28;20570;-79
2022/09/25 09:45:54;;;;;;;5.53;1.20;;;;;;;13.20;81.44;101512.34;5049085;28;20179;-78
2022/09/25 09:48:29;;;;;;;6.63;1.55;;;;;;;13.26;81.08;101512.69;5048613;28;20024;-78
2022/09/25 09:51:00;;;;;;;4.88;1.15;;;;;;;13.43;81.15;101497.47;5047098;28;20048;-78
2022/09/25 09:53:35;;;;;;;6.25;1.35;;;;;;;13.63;81.21;101507.03;5048352;28;20030;-79
2022/09/25 09:56:15;;;;;;;5.53;1.25;;;;;;;13.60;80.33;101503.88;5048686;28;20043;-77
2022/09/25 09:58:43;;;;;;;5.13;1.23;;;;;;;13.53;78.18;101498.31;5048386;28;20025;-78
2022/09/25 10:01:10;;;;;;;5.78;1.10;;;;;;;13.48;77.97;101500.53;5046859;28;20381;-77
2022/09/25 10:03:38;;;;;;;6.10;1.33;;;;;;;13.56;78.70;101508.50;5024558;28;20070;-77
2022/09/25 10:06:08;;;;;;;6.65;1.20;;;;;;;13.65;76.57;101507.75;5047847;28;20814;-78
2022/09/25 10:08:34;;;;;;;3.63;1.00;;;;;;;13.69;73.88;101506.53;5047527;28;20064;-78
2022/09/25 10:11:08;;;;;;;6.18;1.30;;;;;;;13.75;73.22;101506.00;5047973;28;20024;-79
2022/09/25 10:13:38;;;;;;;6.85;1.15;;;;;;;13.73;75.90;101507.09;5047654;28;20029;-79
2022/09/25 10:16:16;;;;;;;4.72;1.25;;;;;;;13.63;75.17;101499.22;5047004;28;20077;-78
2022/09/25 10:18:52;;;;;;;3.05;1.00;;;;;;;13.70;74.54;101502.97;5047712;28;20020;-78
2022/09/25 10:21:29;;;;;;;3.10;1.13;;;;;;;13.80;76.51;101501.22;5028549;28;20423;-78
2022/09/25 10:23:57;;;;;;;4.75;1.30;;;;;;;13.98;74.73;101500.63;5016777;28;20033;-78
2022/09/25 10:26:50;;;;;;;4.93;1.10;;;;;;;14.07;72.82;101502.47;5039400;28;20025;-78
2022/09/25 10:29:18;;;;;;;4.55;1.10;;;;;;;14.25;73.79;101511.31;5033475;28;20041;-78
2022/09/25 10:31:43;;;;;;;5.43;1.40;;;;;;;14.28;74.83;101491.97;5029496;28;20029;-78
2022/09/25 10:34:12;;;;;;;3.55;1.08;;;;;;;14.34;73.78;101494.88;5042183;28;20027;-79
2022/09/25 10:36:39;;;;;;;4.47;1.30;;;;;;;14.49;73.04;101486.69;5021425;28;20057;-78
2022/09/25 10:39:23;;;;;;;5.60;1.30;;;;;;;14.57;72.81;101489.47;5024802;28;20025;-75
2022/09/25 10:41:48;;;;;;;6.03;1.30;;;;;;;14.56;71.12;101472.13;5040613;28;20029;-78
2022/09/25 10:44:35;;;;;;;5.25;1.20;;;;;;;14.74;74.32;101482.75;5042921;28;20033;-77
2022/09/25 10:50:14;;;;;;;4.63;1.08;;;;;;;14.90;72.46;101490.84;5033414;28;20048;-78
2022/09/25 10:52:49;;;;;;;3.97;1.15;;;;;;;14.86;74.74;101500.78;5027562;28;20072;-79
2022/09/25 10:55:19;;;;;;;3.95;0.82;;;;;;;14.77;74.78;101487.69;5031697;28;20025;-77
2022/09/25 10:57:46;;;;;;;1.92;0.73;;;;;;;14.54;72.85;101494.94;5038954;28;20132;-77
2022/09/25 11:00:21;;;;;;;2.20;0.70;;;;;;;14.34;71.39;101489.66;5037160;28;20021;-79
2022/09/25 11:02:55;;;;;;;3.63;0.88;;;;;;;14.26;72.98;101494.69;5036454;28;20135;-78
2022/09/25 11:05:26;;;;;;;5.10;1.13;;;;;;;14.20;72.84;101491.78;5036592;28;20021;-79
2022/09/25 11:07:55;;;;;;;3.92;0.80;;;;;;;14.11;73.82;101488.22;5028256;28;20079;-78
2022/09/25 11:10:25;;;;;;;4.15;1.10;;;;;;;14.04;72.61;101487.06;5027722;28;20362;-79
2022/09/25 11:12:51;;;;;;;2.47;0.80;;;;;;;13.98;70.99;101491.03;5037345;28;20060;-79
2022/09/25 11:15:19;;;;;;;3.00;0.70;;;;;;;14.01;70.23;101497.78;5040094;28;20043;-79
2022/09/25 11:17:49;;;;;;;2.75;0.80;;;;;;;14.12;73.63;101489.84;5030218;28;20124;-79
2022/09/25 11:20:15;;;;;;;2.78;0.88;;;;;;;14.19;70.54;101490.97;5040972;28;20074;-78
2022/09/25 11:22:47;;;;;;;3.78;0.80;;;;;;;14.30;69.09;101492.66;5033023;28;20027;-79
2022/09/25 11:25:20;;;;;;;4.72;0.82;;;;;;;14.41;71.21;101484.72;5031195;28;20100;-78
2022/09/25 11:27:59;;;;;;;2.80;0.70;;;;;;;14.34;69.81;101492.25;5015591;28;20059;-78
2022/09/25 11:30:36;;;;;;;2.22;0.70;;;;;;;14.63;68.88;101494.16;5030724;28;20040;-78
2022/09/25 11:33:05;;;;;;;2.70;0.65;;;;;;;14.80;68.98;101493.47;5031479;28;20115;-78
2022/09/25 11:35:49;;;;;;;3.67;0.80;;;;;;;14.95;69.13;101490.44;5029843;28;20429;-78
2022/09/25 11:38:17;;;;;;;5.03;0.88;;;;;;;14.86;62.88;101479.88;5038762;28;20021;-79
2022/09/25 11:43:56;;;;;;;4.03;1.00;;;;;;;15.21;68.09;101469.81;5038094;28;20074;-78
2022/09/25 11:46:29;;;;;;;5.57;0.90;;;;;;;15.10;66.30;101471.63;5012549;28;20099;-78
2022/09/25 11:49:21;;;;;;;3.90;0.90;;;;;;;15.05;68.55;101458.13;5034610;28;20037;-79
2022/09/25 11:52:05;;;;;;;4.55;0.85;;;;;;;14.99;69.30;101463.09;5015935;28;20075;-78
2022/09/25 11:54:45;;;;;;;3.42;1.00;;;;;;;15.15;70.02;101465.97;5029622;28;20021;-78
2022/09/25 11:57:11;;;;;;;6.03;1.10;;;;;;;15.04;66.57;101460.91;5040691;28;20033;-78
2022/09/25 11:59:51;;;;;;;3.95;0.80;;;;;;;15.18;69.56;101463.06;5038844;28;20477;-78
2022/09/25 12:02:50;;;;;;;3.72;1.10;;;;;;;15.17;68.54;101456.19;5038976;28;20025;-77